createdAt,value
2017-11-14T00:00:32.602Z,0.00
2017-11-14T00:01:32.594Z,0.00
2017-11-14T00:02:32.585Z,0.00
2017-11-14T00:03:32.579Z,0.00
2017-11-14T00:04:32.571Z,0.00
2017-11-14T00:05:32.571Z,0.00
2017-11-14T00:06:32.556Z,0.00
2017-11-14T00:07:32.549Z,0.00
2017-11-14T00:08:32.541Z,0.00
2017-11-14T00:09:32.535Z,0.00
2017-11-14T00:10:32.525Z,0.00
2017-11-14T00:11:32.519Z,0.00
2017-11-14T00:12:32.511Z,0.00
2017-11-14T00:13:32.504Z,0.00
2017-11-14T00:14:32.496Z,0.00
2017-11-14T00:15:32.487Z,0.00
2017-11-14T00:16:32.482Z,0.00
2017-11-14T00:17:32.472Z,0.00
2017-11-14T00:18:32.465Z,0.00
2017-11-14T00:19:32.459Z,0.00
2017-11-14T00:20:32.449Z,0.00
2017-11-14T00:21:32.442Z,0.00
2017-11-14T00:22:32.434Z,0.00
2017-11-14T00:23:32.426Z,0.00
2017-11-14T00:24:32.419Z,0.00
2017-11-14T00:25:32.411Z,0.00
2017-11-14T00:26:32.403Z,0.00
2017-11-14T00:27:32.395Z,0.00
2017-11-14T00:28:32.389Z,0.00
2017-11-14T00:29:32.380Z,0.00
2017-11-14T00:30:32.370Z,0.00
2017-11-14T00:31:32.365Z,0.00
2017-11-14T00:32:32.356Z,0.00
2017-11-14T00:33:32.350Z,0.00
2017-11-14T00:34:32.340Z,0.00
2017-11-14T00:35:32.333Z,0.00
2017-11-14T00:36:32.332Z,0.00
2017-11-14T00:37:32.320Z,0.00
2017-11-14T00:38:32.310Z,0.00
2017-11-14T00:39:32.303Z,0.00
2017-11-14T00:40:32.296Z,0.00
2017-11-14T00:41:32.288Z,0.00
2017-11-14T00:42:32.279Z,0.00
2017-11-14T00:43:32.273Z,0.00
2017-11-14T00:44:32.262Z,0.00
2017-11-14T00:45:32.258Z,0.00
2017-11-14T00:46:32.248Z,0.00
2017-11-14T00:47:32.241Z,0.00
2017-11-14T00:48:32.233Z,0.00
2017-11-14T00:49:32.225Z,0.00
2017-11-14T00:50:32.220Z,0.00
2017-11-14T00:51:32.209Z,0.00
2017-11-14T00:52:32.204Z,0.00
2017-11-14T00:53:32.199Z,0.00
2017-11-14T00:54:32.186Z,0.00
2017-11-14T00:55:32.182Z,0.00
2017-11-14T00:56:32.174Z,0.00
2017-11-14T00:57:32.165Z,0.00
2017-11-14T00:58:32.156Z,0.00
2017-11-14T00:59:32.151Z,0.00
2017-11-14T01:00:32.142Z,0.00
2017-11-14T01:01:32.136Z,0.00
2017-11-14T01:02:32.129Z,0.00
2017-11-14T01:03:32.120Z,0.00
2017-11-14T01:04:32.111Z,0.00
2017-11-14T01:05:32.103Z,0.00
2017-11-14T01:06:32.096Z,0.00
2017-11-14T01:07:32.089Z,0.00
2017-11-14T01:08:32.082Z,0.00
2017-11-14T01:09:32.074Z,0.00
2017-11-14T01:10:32.066Z,0.00
2017-11-14T01:11:32.059Z,0.00
2017-11-14T01:12:32.051Z,0.00
2017-11-14T01:13:32.045Z,0.00
2017-11-14T01:14:32.039Z,0.00
2017-11-14T01:15:32.029Z,0.00
2017-11-14T01:16:32.022Z,0.00
2017-11-14T01:17:32.015Z,0.00
2017-11-14T01:18:32.008Z,0.00
2017-11-14T01:19:32.024Z,0.00
2017-11-14T01:20:31.992Z,0.00
2017-11-14T01:21:31.986Z,0.00
2017-11-14T01:22:31.976Z,0.00
2017-11-14T01:23:31.969Z,0.00
2017-11-14T01:24:31.963Z,0.00
2017-11-14T01:25:31.955Z,0.00
2017-11-14T01:26:31.948Z,0.00
2017-11-14T01:27:31.940Z,0.00
2017-11-14T01:28:31.934Z,0.00
2017-11-14T01:29:31.929Z,0.00
2017-11-14T01:30:31.918Z,0.00
2017-11-14T01:31:31.913Z,0.00
2017-11-14T01:32:31.905Z,0.00
2017-11-14T01:33:31.898Z,0.00
2017-11-14T01:34:31.889Z,0.00
2017-11-14T01:35:31.886Z,0.00
2017-11-14T01:36:31.874Z,0.00
2017-11-14T01:37:31.869Z,0.00
2017-11-14T01:38:31.860Z,0.00
2017-11-14T01:39:31.853Z,0.00
2017-11-14T01:40:31.846Z,0.00
2017-11-14T01:41:31.839Z,0.00
2017-11-14T01:42:31.831Z,0.00
2017-11-14T01:43:31.823Z,0.00
2017-11-14T01:44:31.814Z,0.00
2017-11-14T01:45:31.809Z,0.00
2017-11-14T01:46:31.799Z,0.00
2017-11-14T01:47:31.793Z,0.00
2017-11-14T01:48:31.786Z,0.00
2017-11-14T01:49:31.778Z,0.00
2017-11-14T01:50:31.770Z,0.00
2017-11-14T01:51:31.763Z,0.00
2017-11-14T01:52:31.755Z,0.00
2017-11-14T01:53:31.748Z,0.00
2017-11-14T01:54:31.741Z,0.00
2017-11-14T01:55:31.732Z,0.00
2017-11-14T01:56:31.726Z,0.00
2017-11-14T01:57:31.721Z,0.00
2017-11-14T01:58:31.710Z,0.00
2017-11-14T01:59:31.704Z,0.00
2017-11-14T02:00:31.698Z,0.00
2017-11-14T02:01:31.700Z,0.00
2017-11-14T02:02:31.680Z,0.00
2017-11-14T02:03:31.675Z,0.00
2017-11-14T02:04:31.665Z,0.00
2017-11-14T02:05:31.658Z,0.00
2017-11-14T02:06:31.650Z,0.00
2017-11-14T02:07:31.643Z,0.00
2017-11-14T02:08:31.635Z,0.00
2017-11-14T02:09:31.627Z,0.00
2017-11-14T02:10:31.624Z,0.00
2017-11-14T02:11:31.611Z,0.00
2017-11-14T02:12:31.606Z,0.00
2017-11-14T02:13:31.597Z,0.00
2017-11-14T02:14:31.588Z,0.00
2017-11-14T02:15:31.582Z,0.00
2017-11-14T02:16:31.574Z,0.00
2017-11-14T02:17:31.567Z,0.00
2017-11-14T02:18:31.559Z,0.00
2017-11-14T02:19:31.551Z,0.00
2017-11-14T02:20:31.545Z,0.00
2017-11-14T02:21:31.537Z,0.00
2017-11-14T02:22:31.528Z,0.00
2017-11-14T02:23:31.523Z,0.00
2017-11-14T02:24:31.513Z,0.00
2017-11-14T02:25:31.506Z,0.00
2017-11-14T02:26:31.497Z,0.00
2017-11-14T02:27:31.490Z,0.00
2017-11-14T02:28:31.482Z,0.00
2017-11-14T02:29:31.479Z,0.00
2017-11-14T02:30:31.466Z,0.00
2017-11-14T02:31:31.459Z,0.00
2017-11-14T02:32:31.454Z,0.00
2017-11-14T02:33:31.445Z,0.00
2017-11-14T02:34:31.443Z,0.00
2017-11-14T02:35:31.436Z,0.00
2017-11-14T02:36:31.422Z,0.00
2017-11-14T02:37:31.416Z,0.00
2017-11-14T02:38:31.409Z,0.00
2017-11-14T02:39:31.401Z,0.00
2017-11-14T02:40:31.392Z,0.00
2017-11-14T02:41:31.385Z,0.00
2017-11-14T02:42:31.377Z,0.00
2017-11-14T02:43:31.370Z,0.00
2017-11-14T02:44:31.366Z,0.00
2017-11-14T02:45:31.355Z,0.00
2017-11-14T02:46:31.346Z,0.00
2017-11-14T02:47:31.338Z,0.00
2017-11-14T02:48:31.331Z,0.00
2017-11-14T02:49:31.324Z,0.00
2017-11-14T02:50:31.318Z,0.00
2017-11-14T02:51:31.308Z,0.00
2017-11-14T02:52:31.302Z,0.00
2017-11-14T02:53:31.298Z,0.00
2017-11-14T02:54:31.286Z,0.00
2017-11-14T02:55:31.280Z,0.00
2017-11-14T02:56:31.276Z,0.00
2017-11-14T02:57:31.265Z,0.00
2017-11-14T02:58:31.257Z,0.00
2017-11-14T02:59:31.251Z,0.00
2017-11-14T03:00:31.241Z,0.00
2017-11-14T03:01:31.234Z,0.00
2017-11-14T03:02:31.226Z,0.00
2017-11-14T03:03:31.219Z,0.00
2017-11-14T03:04:31.212Z,0.00
2017-11-14T03:05:31.205Z,0.00
2017-11-14T03:06:31.196Z,0.00
2017-11-14T03:07:31.189Z,0.00
2017-11-14T03:08:31.182Z,0.00
2017-11-14T03:09:31.176Z,0.00
2017-11-14T03:10:31.167Z,0.00
2017-11-14T03:11:31.159Z,0.00
2017-11-14T03:12:31.154Z,0.00
2017-11-14T03:13:31.144Z,0.00
2017-11-14T03:14:31.136Z,0.00
2017-11-14T03:15:31.129Z,0.00
2017-11-14T03:16:31.121Z,0.00
2017-11-14T03:17:31.114Z,0.00
2017-11-14T03:18:31.106Z,0.00
2017-11-14T03:19:31.100Z,0.00
2017-11-14T03:20:31.093Z,0.00
2017-11-14T03:21:31.085Z,0.00
2017-11-14T03:22:31.077Z,0.00
2017-11-14T03:23:31.076Z,0.00
2017-11-14T03:24:31.063Z,0.00
2017-11-14T03:25:31.057Z,0.00
2017-11-14T03:26:31.048Z,0.00
2017-11-14T03:27:31.041Z,0.00
2017-11-14T03:28:31.034Z,0.00
2017-11-14T03:29:31.034Z,0.00
2017-11-14T03:30:31.021Z,0.00
2017-11-14T03:31:31.017Z,0.00
2017-11-14T03:32:31.004Z,0.00
2017-11-14T03:33:30.997Z,0.00
2017-11-14T03:34:30.988Z,0.00
2017-11-14T03:35:30.981Z,0.00
2017-11-14T03:36:30.974Z,0.00
2017-11-14T03:37:30.967Z,0.00
2017-11-14T03:38:30.963Z,0.00
2017-11-14T03:39:30.951Z,0.00
2017-11-14T03:40:30.946Z,0.00
2017-11-14T03:41:30.937Z,0.00
2017-11-14T03:42:30.929Z,0.00
2017-11-14T03:43:30.923Z,0.00
2017-11-14T03:44:30.915Z,0.00
2017-11-14T03:45:30.909Z,0.00
2017-11-14T03:46:30.901Z,0.00
2017-11-14T03:47:30.893Z,0.00
2017-11-14T03:48:30.887Z,0.00
2017-11-14T03:49:30.880Z,0.00
2017-11-14T03:50:30.872Z,0.00
2017-11-14T03:51:30.864Z,0.00
2017-11-14T03:52:30.857Z,0.00
2017-11-14T03:53:30.853Z,0.00
2017-11-14T03:54:30.842Z,0.00
2017-11-14T03:55:30.835Z,0.00
2017-11-14T03:56:30.827Z,0.00
2017-11-14T03:57:30.822Z,0.00
2017-11-14T03:58:30.813Z,0.00
2017-11-14T03:59:30.806Z,0.00
2017-11-14T04:00:30.800Z,0.00
2017-11-14T04:01:30.792Z,0.00
2017-11-14T04:02:30.783Z,0.00
2017-11-14T04:03:30.775Z,0.00
2017-11-14T04:04:30.770Z,0.00
2017-11-14T04:05:30.763Z,0.00
2017-11-14T04:06:30.754Z,0.00
2017-11-14T04:07:30.748Z,0.00
2017-11-14T04:08:30.741Z,0.00
2017-11-14T04:09:30.732Z,0.00
2017-11-14T04:10:30.724Z,0.00
2017-11-14T04:11:30.717Z,0.00
2017-11-14T04:12:30.710Z,0.00
2017-11-14T04:13:30.702Z,0.00
2017-11-14T04:14:30.694Z,0.00
2017-11-14T04:15:30.689Z,0.00
2017-11-14T04:16:30.681Z,0.00
2017-11-14T04:17:30.673Z,0.00
2017-11-14T04:18:30.666Z,0.00
2017-11-14T04:19:30.659Z,0.00
2017-11-14T04:20:30.651Z,0.00
2017-11-14T04:21:30.645Z,0.00
2017-11-14T04:22:30.640Z,0.00
2017-11-14T04:23:30.629Z,0.00
2017-11-14T04:24:30.619Z,0.00
2017-11-14T04:25:30.613Z,0.00
2017-11-14T04:26:30.613Z,0.00
2017-11-14T04:27:30.598Z,0.00
2017-11-14T04:28:30.589Z,0.00
2017-11-14T04:29:30.582Z,0.00
2017-11-14T04:30:30.574Z,0.00
2017-11-14T04:31:30.567Z,0.00
2017-11-14T04:32:30.559Z,0.00
2017-11-14T04:33:30.552Z,0.00
2017-11-14T04:34:30.543Z,0.00
2017-11-14T04:35:30.536Z,0.00
2017-11-14T04:36:30.530Z,0.00
2017-11-14T04:37:30.521Z,0.00
2017-11-14T04:38:30.513Z,0.00
2017-11-14T04:39:30.511Z,0.00
2017-11-14T04:40:30.504Z,0.00
2017-11-14T04:41:30.491Z,0.00
2017-11-14T04:42:30.484Z,0.00
2017-11-14T04:43:30.476Z,0.00
2017-11-14T04:44:30.469Z,0.00
2017-11-14T04:45:30.459Z,0.00
2017-11-14T04:46:30.451Z,0.00
2017-11-14T04:47:30.445Z,0.00
2017-11-14T04:48:30.436Z,0.00
2017-11-14T04:49:30.429Z,0.00
2017-11-14T04:50:30.421Z,0.00
2017-11-14T04:51:30.413Z,0.00
2017-11-14T04:52:30.407Z,0.00
2017-11-14T04:53:30.397Z,0.00
2017-11-14T04:54:30.390Z,0.00
2017-11-14T04:55:30.383Z,0.00
2017-11-14T04:56:30.374Z,0.00
2017-11-14T04:57:30.367Z,0.00
2017-11-14T04:58:30.358Z,0.00
2017-11-14T04:59:30.351Z,0.00
2017-11-14T05:00:30.344Z,0.00
2017-11-14T05:01:30.336Z,0.00
2017-11-14T05:02:30.326Z,0.00
2017-11-14T05:03:30.319Z,0.00
2017-11-14T05:04:30.312Z,0.00
2017-11-14T05:05:30.304Z,0.00
2017-11-14T05:06:30.295Z,0.00
2017-11-14T05:07:30.289Z,0.00
2017-11-14T05:08:30.280Z,0.00
2017-11-14T05:09:30.272Z,0.00
2017-11-14T05:10:30.265Z,0.00
2017-11-14T05:11:30.257Z,0.00
2017-11-14T05:12:30.250Z,0.00
2017-11-14T05:13:30.242Z,0.00
2017-11-14T05:14:30.233Z,0.00
2017-11-14T05:15:30.225Z,0.00
2017-11-14T05:16:30.216Z,0.00
2017-11-14T05:17:30.209Z,0.00
2017-11-14T05:18:30.200Z,0.00
2017-11-14T05:19:30.193Z,0.00
2017-11-14T05:20:30.185Z,0.00
2017-11-14T05:21:30.177Z,0.00
2017-11-14T05:22:30.168Z,0.00
2017-11-14T05:23:30.160Z,0.00
2017-11-14T05:24:30.151Z,0.00
2017-11-14T05:25:30.146Z,0.00
2017-11-14T05:26:30.142Z,0.00
2017-11-14T05:27:30.128Z,0.00
2017-11-14T05:28:30.120Z,0.00
2017-11-14T05:29:30.112Z,0.00
2017-11-14T05:30:30.102Z,0.00
2017-11-14T05:31:30.095Z,0.00
2017-11-14T05:32:30.086Z,0.00
2017-11-14T05:33:30.080Z,0.00
2017-11-14T05:34:30.071Z,0.00
2017-11-14T05:35:30.064Z,0.00
2017-11-14T05:36:30.053Z,0.00
2017-11-14T05:37:30.046Z,0.00
2017-11-14T05:38:30.038Z,0.00
2017-11-14T05:39:30.029Z,0.00
2017-11-14T05:40:30.021Z,0.00
2017-11-14T05:41:30.013Z,0.00
2017-11-14T05:42:30.005Z,0.00
2017-11-14T05:43:29.995Z,0.00
2017-11-14T05:44:29.989Z,0.00
2017-11-14T05:45:29.978Z,0.00
2017-11-14T05:46:29.972Z,0.00
2017-11-14T05:47:29.963Z,0.00
2017-11-14T05:48:29.954Z,0.00
2017-11-14T05:49:29.946Z,0.00
2017-11-14T05:50:29.936Z,0.00
2017-11-14T05:51:29.927Z,0.00
2017-11-14T05:52:29.920Z,0.00
2017-11-14T05:53:29.920Z,0.00
2017-11-14T05:54:29.908Z,0.00
2017-11-14T05:55:29.894Z,0.00
2017-11-14T05:56:29.887Z,0.00
2017-11-14T05:57:29.888Z,0.00
2017-11-14T05:58:29.870Z,0.00
2017-11-14T05:59:29.863Z,0.00
2017-11-14T06:00:29.853Z,0.00
2017-11-14T06:01:29.844Z,0.00
2017-11-14T06:02:29.837Z,0.00
2017-11-14T06:03:29.827Z,0.00
2017-11-14T06:04:29.820Z,0.00
2017-11-14T06:05:29.812Z,0.00
2017-11-14T06:06:29.804Z,0.00
2017-11-14T06:07:29.795Z,0.00
2017-11-14T06:08:29.787Z,0.00
2017-11-14T06:09:29.797Z,0.00
2017-11-14T06:10:29.769Z,0.00
2017-11-14T06:11:29.762Z,0.00
2017-11-14T06:12:29.760Z,0.00
2017-11-14T06:13:29.746Z,0.00
2017-11-14T06:14:29.737Z,0.00
2017-11-14T06:15:29.730Z,4.00
2017-11-14T06:16:29.723Z,0.00
2017-11-14T06:17:29.713Z,0.00
2017-11-14T06:18:29.706Z,4.00
2017-11-14T06:19:29.696Z,4.00
2017-11-14T06:20:29.689Z,0.00
2017-11-14T06:21:29.682Z,4.00
2017-11-14T06:22:29.673Z,0.00
2017-11-14T06:23:29.664Z,4.00
2017-11-14T06:24:29.657Z,4.00
2017-11-14T06:25:29.649Z,4.00
2017-11-14T06:26:29.638Z,4.00
2017-11-14T06:27:29.632Z,4.00
2017-11-14T06:28:29.624Z,8.00
2017-11-14T06:29:29.617Z,4.00
2017-11-14T06:30:29.610Z,8.00
2017-11-14T06:31:29.606Z,8.00
2017-11-14T06:32:29.592Z,8.00
2017-11-14T06:33:29.585Z,12.00
2017-11-14T06:34:29.576Z,16.00
2017-11-14T06:35:29.569Z,16.00
2017-11-14T06:36:29.561Z,20.00
2017-11-14T06:37:29.552Z,20.00
2017-11-14T06:38:29.545Z,20.00
2017-11-14T06:39:29.537Z,24.00
2017-11-14T06:40:29.529Z,32.00
2017-11-14T06:41:29.522Z,36.00
2017-11-14T06:42:29.512Z,44.00
2017-11-14T06:43:29.506Z,52.00
2017-11-14T06:44:29.497Z,60.00
2017-11-14T06:45:29.492Z,64.00
2017-11-14T06:46:29.481Z,72.00
2017-11-14T06:47:29.474Z,88.00
2017-11-14T06:48:29.466Z,96.00
2017-11-14T06:49:29.460Z,112.00
2017-11-14T06:50:29.450Z,124.00
2017-11-14T06:51:29.451Z,132.00
2017-11-14T06:52:29.435Z,140.00
2017-11-14T06:53:29.427Z,152.00
2017-11-14T06:54:29.418Z,168.00
2017-11-14T06:55:29.412Z,184.00
2017-11-14T06:56:29.402Z,192.00
2017-11-14T06:57:29.395Z,208.00
2017-11-14T06:58:29.387Z,224.00
2017-11-14T06:59:29.382Z,232.00
2017-11-14T07:00:29.373Z,244.00
2017-11-14T07:01:29.364Z,260.00
2017-11-14T07:02:29.377Z,284.00
2017-11-14T07:03:29.348Z,328.00
2017-11-14T07:04:29.341Z,368.00
2017-11-14T07:05:29.342Z,412.00
2017-11-14T07:06:29.326Z,444.00
2017-11-14T07:07:29.317Z,468.00
2017-11-14T07:08:29.310Z,472.00
2017-11-14T07:09:29.305Z,468.00
2017-11-14T07:10:29.294Z,452.00
2017-11-14T07:11:29.288Z,436.00
2017-11-14T07:12:29.278Z,468.00
2017-11-14T07:13:29.272Z,536.00
2017-11-14T07:14:29.264Z,612.00
2017-11-14T07:15:29.256Z,684.00
2017-11-14T07:16:29.247Z,760.00
2017-11-14T07:17:29.240Z,840.00
2017-11-14T07:18:29.231Z,920.00
2017-11-14T07:19:29.226Z,992.00
2017-11-14T07:20:29.217Z,1028.00
2017-11-14T07:21:29.211Z,1008.00
2017-11-14T07:22:29.201Z,936.00
2017-11-14T07:23:29.193Z,880.00
2017-11-14T07:24:29.187Z,844.00
2017-11-14T07:25:29.179Z,952.00
2017-11-14T07:26:29.171Z,1036.00
2017-11-14T07:27:29.168Z,1096.00
2017-11-14T07:28:29.155Z,1168.00
2017-11-14T07:29:29.149Z,1260.00
2017-11-14T07:30:29.141Z,1376.00
2017-11-14T07:31:29.132Z,1472.00
2017-11-14T07:32:29.124Z,1496.00
2017-11-14T07:33:29.127Z,1524.00
2017-11-14T07:34:29.112Z,1612.00
2017-11-14T07:35:29.102Z,1708.00
2017-11-14T07:36:29.096Z,1764.00
2017-11-14T07:37:29.089Z,1788.00
2017-11-14T07:38:29.081Z,1816.00
2017-11-14T07:39:29.076Z,1852.00
2017-11-14T07:40:29.069Z,1832.00
2017-11-14T07:41:29.058Z,1804.00
2017-11-14T07:42:29.049Z,1824.00
2017-11-14T07:43:29.041Z,1860.00
2017-11-14T07:44:29.036Z,1864.00
2017-11-14T07:45:29.027Z,1852.00
2017-11-14T07:46:29.024Z,1804.00
2017-11-14T07:47:29.013Z,1748.00
2017-11-14T07:48:29.015Z,1692.00
2017-11-14T07:49:29.000Z,1660.00
2017-11-14T07:50:28.995Z,1640.00
2017-11-14T07:51:28.985Z,1616.00
2017-11-14T07:52:28.976Z,1612.00
2017-11-14T07:53:28.975Z,1604.00
2017-11-14T07:54:28.962Z,1596.00
2017-11-14T07:55:28.955Z,1592.00
2017-11-14T07:56:28.947Z,1656.00
2017-11-14T07:57:28.941Z,1680.00
2017-11-14T07:58:28.933Z,1784.00
2017-11-14T07:59:28.925Z,1804.00
2017-11-14T08:00:28.919Z,1840.00
2017-11-14T08:01:28.913Z,1880.00
2017-11-14T08:02:28.915Z,1896.00
2017-11-14T08:03:28.897Z,1920.00
2017-11-14T08:04:28.890Z,1948.00
2017-11-14T08:05:28.883Z,1936.00
2017-11-14T08:06:28.876Z,1964.00
2017-11-14T08:07:28.870Z,2032.00
2017-11-14T08:08:28.861Z,2028.00
2017-11-14T08:09:28.856Z,2048.00
2017-11-14T08:10:28.847Z,2048.00
2017-11-14T08:11:28.840Z,1992.00
2017-11-14T08:12:28.833Z,1932.00
2017-11-14T08:13:28.825Z,1872.00
2017-11-14T08:14:28.821Z,1836.00
2017-11-14T08:15:28.811Z,1820.00
2017-11-14T08:16:28.803Z,1788.00
2017-11-14T08:17:28.799Z,1780.00
2017-11-14T08:18:28.789Z,1792.00
2017-11-14T08:19:28.785Z,1784.00
2017-11-14T08:20:28.775Z,1800.00
2017-11-14T08:21:28.772Z,1804.00
2017-11-14T08:22:28.763Z,1800.00
2017-11-14T08:23:28.756Z,1776.00
2017-11-14T08:24:28.750Z,1740.00
2017-11-14T08:25:28.743Z,1676.00
2017-11-14T08:26:28.734Z,1576.00
2017-11-14T08:27:28.730Z,1468.00
2017-11-14T08:28:28.721Z,1328.00
2017-11-14T08:29:28.715Z,1248.00
2017-11-14T08:30:28.707Z,1224.00
2017-11-14T08:31:28.708Z,1228.00
2017-11-14T08:32:28.715Z,1228.00
2017-11-14T08:33:28.690Z,1200.00
2017-11-14T08:34:28.679Z,1156.00
2017-11-14T08:35:28.673Z,1156.00
2017-11-14T08:36:28.667Z,1184.00
2017-11-14T08:37:28.660Z,1160.00
2017-11-14T08:38:28.652Z,1108.00
2017-11-14T08:39:28.645Z,1088.00
2017-11-14T08:40:28.638Z,1084.00
2017-11-14T08:41:28.632Z,1108.00
2017-11-14T08:42:28.624Z,1184.00
2017-11-14T08:43:28.618Z,1292.00
2017-11-14T08:44:28.610Z,1420.00
2017-11-14T08:45:28.605Z,1584.00
2017-11-14T08:46:28.604Z,1692.00
2017-11-14T08:47:28.589Z,1784.00
2017-11-14T08:48:28.583Z,1892.00
2017-11-14T08:49:28.577Z,2004.00
2017-11-14T08:50:28.569Z,2080.00
2017-11-14T08:51:28.563Z,2196.00
2017-11-14T08:52:28.555Z,2388.00
2017-11-14T08:53:28.548Z,2516.00
2017-11-14T08:54:28.542Z,2532.00
2017-11-14T08:55:28.534Z,2504.00
2017-11-14T08:56:28.528Z,2456.00
2017-11-14T08:57:28.520Z,2368.00
2017-11-14T08:58:28.515Z,2308.00
2017-11-14T08:59:28.511Z,2328.00
2017-11-14T09:00:28.500Z,2408.00
2017-11-14T09:01:28.495Z,2468.00
2017-11-14T09:02:28.487Z,2500.00
2017-11-14T09:03:28.480Z,2536.00
2017-11-14T09:04:28.474Z,2576.00
2017-11-14T09:05:28.469Z,2580.00
2017-11-14T09:06:28.459Z,2600.00
2017-11-14T09:07:28.463Z,2640.00
2017-11-14T09:08:28.447Z,2580.00
2017-11-14T09:09:28.444Z,2508.00
2017-11-14T09:10:28.434Z,2612.00
2017-11-14T09:11:28.427Z,2836.00
2017-11-14T09:12:28.425Z,3084.00
2017-11-14T09:13:28.418Z,3240.00
2017-11-14T09:14:28.407Z,3284.00
2017-11-14T09:15:28.400Z,3180.00
2017-11-14T09:16:28.394Z,3060.00
2017-11-14T09:17:28.389Z,3024.00
2017-11-14T09:18:28.380Z,3052.00
2017-11-14T09:19:28.378Z,3148.00
2017-11-14T09:20:28.368Z,3296.00
2017-11-14T09:21:28.362Z,3420.00
2017-11-14T09:22:28.354Z,3488.00
2017-11-14T09:23:28.348Z,3492.00
2017-11-14T09:24:28.342Z,3480.00
2017-11-14T09:25:28.336Z,3432.00
2017-11-14T09:26:28.331Z,3452.00
2017-11-14T09:27:28.323Z,3472.00
2017-11-14T09:28:28.318Z,3412.00
2017-11-14T09:29:28.312Z,3264.00
2017-11-14T09:30:28.305Z,3180.00
2017-11-14T09:31:28.299Z,3108.00
2017-11-14T09:32:28.293Z,3032.00
2017-11-14T09:33:28.285Z,3032.00
2017-11-14T09:34:28.279Z,3068.00
2017-11-14T09:35:28.274Z,3072.00
2017-11-14T09:36:28.269Z,3044.00
2017-11-14T09:37:28.261Z,3084.00
2017-11-14T09:38:28.254Z,3192.00
2017-11-14T09:39:28.248Z,3404.00
2017-11-14T09:40:28.246Z,3736.00
2017-11-14T09:41:28.238Z,4152.00
2017-11-14T09:42:28.230Z,4620.00
2017-11-14T09:43:28.224Z,4872.00
2017-11-14T09:44:28.220Z,4896.00
2017-11-14T09:45:28.212Z,4768.00
2017-11-14T09:46:28.206Z,4544.00
2017-11-14T09:47:28.200Z,4432.00
2017-11-14T09:48:28.205Z,4564.00
2017-11-14T09:49:28.191Z,4588.00
2017-11-14T09:50:28.182Z,4384.00
2017-11-14T09:51:28.176Z,4208.00
2017-11-14T09:52:28.172Z,4108.00
2017-11-14T09:53:28.165Z,3944.00
2017-11-14T09:54:28.160Z,3664.00
2017-11-14T09:55:28.152Z,3512.00
2017-11-14T09:56:28.147Z,3596.00
2017-11-14T09:57:28.142Z,3756.00
2017-11-14T09:58:28.135Z,3916.00
2017-11-14T09:59:28.131Z,4024.00
2017-11-14T10:00:28.126Z,4080.00
2017-11-14T10:01:28.119Z,4112.00
2017-11-14T10:02:28.114Z,4336.00
2017-11-14T10:03:28.107Z,4780.00
2017-11-14T10:04:28.102Z,5260.00
2017-11-14T10:05:28.098Z,5304.00
2017-11-14T10:06:28.090Z,4980.00
2017-11-14T10:07:28.088Z,4552.00
2017-11-14T10:08:28.079Z,4232.00
2017-11-14T10:09:28.075Z,4056.00
2017-11-14T10:10:28.068Z,4064.00
2017-11-14T10:11:28.064Z,4284.00
2017-11-14T10:12:28.057Z,4648.00
2017-11-14T10:13:28.053Z,4864.00
2017-11-14T10:14:28.046Z,4988.00
2017-11-14T10:15:28.041Z,5152.00
2017-11-14T10:16:28.038Z,5260.00
2017-11-14T10:17:28.030Z,5492.00
2017-11-14T10:18:28.025Z,5484.00
2017-11-14T10:19:28.021Z,5064.00
2017-11-14T10:20:28.015Z,4720.00
2017-11-14T10:21:28.011Z,4580.00
2017-11-14T10:22:28.002Z,4380.00
2017-11-14T10:23:27.997Z,4092.00
2017-11-14T10:24:27.993Z,3760.00
2017-11-14T10:25:27.988Z,3656.00
2017-11-14T10:26:27.982Z,3812.00
2017-11-14T10:27:27.979Z,4076.00
2017-11-14T10:28:27.973Z,4408.00
2017-11-14T10:29:27.968Z,4704.00
2017-11-14T10:30:27.963Z,4904.00
2017-11-14T10:31:27.957Z,5028.00
2017-11-14T10:32:27.953Z,5084.00
2017-11-14T10:33:27.947Z,5012.00
2017-11-14T10:34:27.941Z,4888.00
2017-11-14T10:35:27.936Z,4728.00
2017-11-14T10:36:27.931Z,4500.00
2017-11-14T10:37:27.928Z,4264.00
2017-11-14T10:38:27.920Z,4028.00
2017-11-14T10:39:27.916Z,3956.00
2017-11-14T10:40:27.912Z,3896.00
2017-11-14T10:41:27.907Z,3660.00
2017-11-14T10:42:27.903Z,3624.00
2017-11-14T10:43:27.896Z,4344.00
2017-11-14T10:44:27.894Z,4584.00
2017-11-14T10:45:27.887Z,4336.00
2017-11-14T10:46:27.881Z,4464.00
2017-11-14T10:47:27.877Z,4620.00
2017-11-14T10:48:27.872Z,4632.00
2017-11-14T10:49:27.867Z,4588.00
2017-11-14T10:50:27.860Z,5336.00
2017-11-14T10:51:27.856Z,5016.00
2017-11-14T10:52:27.851Z,4808.00
2017-11-14T10:53:27.845Z,4836.00
2017-11-14T10:54:27.840Z,4832.00
2017-11-14T10:55:27.837Z,4804.00
2017-11-14T10:56:27.830Z,4968.00
2017-11-14T10:57:27.829Z,5040.00
2017-11-14T10:58:27.823Z,4308.00
2017-11-14T10:59:27.817Z,4692.00
2017-11-14T11:00:27.816Z,5660.00
2017-11-14T11:01:27.807Z,4744.00
2017-11-14T11:02:27.801Z,4508.00
2017-11-14T11:03:27.798Z,4516.00
2017-11-14T11:04:27.793Z,4052.00
2017-11-14T11:05:27.789Z,4004.00
2017-11-14T11:06:27.782Z,4244.00
2017-11-14T11:07:27.779Z,4012.00
2017-11-14T11:08:27.773Z,4364.00
2017-11-14T11:09:27.770Z,4636.00
2017-11-14T11:10:27.763Z,5464.00
2017-11-14T11:11:27.760Z,4880.00
2017-11-14T11:12:27.757Z,4800.00
2017-11-14T11:13:27.751Z,4988.00
2017-11-14T11:14:27.745Z,5240.00
2017-11-14T11:15:27.740Z,5640.00
2017-11-14T11:16:27.736Z,6556.00
2017-11-14T11:17:27.732Z,6740.00
2017-11-14T11:18:27.734Z,5688.00
2017-11-14T11:19:27.723Z,5620.00
2017-11-14T11:20:27.718Z,5988.00
2017-11-14T11:21:27.713Z,5524.00
2017-11-14T11:22:27.707Z,5552.00
2017-11-14T11:23:27.704Z,5444.00
2017-11-14T11:24:27.699Z,5392.00
2017-11-14T11:25:27.694Z,5500.00
2017-11-14T11:26:27.697Z,5576.00
2017-11-14T11:27:27.686Z,5524.00
2017-11-14T11:28:27.686Z,5420.00
2017-11-14T11:29:27.678Z,5264.00
2017-11-14T11:30:27.672Z,5060.00
2017-11-14T11:31:27.669Z,4928.00
2017-11-14T11:32:27.665Z,5140.00
2017-11-14T11:33:27.660Z,5012.00
2017-11-14T11:34:27.656Z,4924.00
2017-11-14T11:35:27.652Z,4600.00
2017-11-14T11:36:27.648Z,4384.00
2017-11-14T11:37:27.644Z,4360.00
2017-11-14T11:38:27.639Z,4540.00
2017-11-14T11:39:27.635Z,4540.00
2017-11-14T11:40:27.630Z,4364.00
2017-11-14T11:41:27.626Z,4180.00
2017-11-14T11:42:27.621Z,4044.00
2017-11-14T11:43:27.618Z,4148.00
2017-11-14T11:44:27.614Z,4184.00
2017-11-14T11:45:27.610Z,4196.00
2017-11-14T11:46:27.606Z,4564.00
2017-11-14T11:47:27.602Z,5184.00
2017-11-14T11:48:27.597Z,5192.00
2017-11-14T11:49:27.594Z,5088.00
2017-11-14T11:50:27.588Z,5020.00
2017-11-14T11:51:27.586Z,4788.00
2017-11-14T11:52:27.582Z,4688.00
2017-11-14T11:53:27.577Z,4716.00
2017-11-14T11:54:27.573Z,4892.00
2017-11-14T11:55:27.569Z,5100.00
2017-11-14T11:56:27.566Z,5132.00
2017-11-14T11:57:27.562Z,5052.00
2017-11-14T11:58:27.558Z,5068.00
2017-11-14T11:59:27.553Z,5096.00
2017-11-14T12:00:27.550Z,4932.00
2017-11-14T12:01:27.554Z,4860.00
2017-11-14T12:02:27.541Z,5124.00
2017-11-14T12:03:27.537Z,5400.00
2017-11-14T12:04:27.532Z,5576.00
2017-11-14T12:05:27.529Z,5820.00
2017-11-14T12:06:27.524Z,5960.00
2017-11-14T12:07:27.520Z,5544.00
2017-11-14T12:08:27.517Z,5884.00
2017-11-14T12:09:27.517Z,5408.00
2017-11-14T12:10:27.520Z,5424.00
2017-11-14T12:11:27.505Z,5592.00
2017-11-14T12:12:27.502Z,5632.00
2017-11-14T12:13:27.497Z,5728.00
2017-11-14T12:14:27.492Z,5756.00
2017-11-14T12:15:27.491Z,5924.00
2017-11-14T12:16:27.485Z,5380.00
2017-11-14T12:17:27.486Z,4944.00
2017-11-14T12:18:27.478Z,4824.00
2017-11-14T12:19:27.473Z,4792.00
2017-11-14T12:20:27.476Z,4544.00
2017-11-14T12:21:27.467Z,4264.00
2017-11-14T12:22:27.464Z,3964.00
2017-11-14T12:23:27.459Z,3752.00
2017-11-14T12:24:27.455Z,3580.00
2017-11-14T12:25:27.452Z,3396.00
2017-11-14T12:26:27.447Z,3324.00
2017-11-14T12:27:27.459Z,3208.00
2017-11-14T12:28:27.440Z,3060.00
2017-11-14T12:29:27.438Z,2968.00
2017-11-14T12:30:27.431Z,3036.00
2017-11-14T12:31:27.430Z,3144.00
2017-11-14T12:32:27.425Z,3228.00
2017-11-14T12:33:27.423Z,3296.00
2017-11-14T12:34:27.419Z,3392.00
2017-11-14T12:35:27.413Z,3580.00
2017-11-14T12:36:27.410Z,3588.00
2017-11-14T12:37:27.406Z,3600.00
2017-11-14T12:38:27.401Z,3848.00
2017-11-14T12:39:27.398Z,3524.00
2017-11-14T12:40:27.393Z,3488.00
2017-11-14T12:41:27.390Z,3328.00
2017-11-14T12:42:27.387Z,3124.00
2017-11-14T12:43:27.383Z,3104.00